createdAt,value
2022-11-29T00:02:29.183Z,7.13
2022-11-29T00:07:30.753Z,7.14
2022-11-29T00:12:32.130Z,7.15
2022-11-29T00:17:33.576Z,7.13
2022-11-29T00:22:35.140Z,7.15
2022-11-29T00:27:36.723Z,7.15
2022-11-29T00:32:38.233Z,7.12
2022-11-29T00:37:39.751Z,7.11
2022-11-29T00:42:41.187Z,7.08
2022-11-29T00:47:42.622Z,7.08
2022-11-29T00:52:44.027Z,7.08
2022-11-29T00:57:45.428Z,7.09
2022-11-29T01:02:46.934Z,7.09
2022-11-29T01:07:48.447Z,7.10
2022-11-29T01:12:50.029Z,7.09
2022-11-29T01:17:51.451Z,7.05
2022-11-29T01:22:53.159Z,7.09
2022-11-29T01:27:54.630Z,7.06
2022-11-29T01:32:56.025Z,7.08
2022-11-29T01:37:57.408Z,7.05
2022-11-29T01:42:58.763Z,7.06
2022-11-29T01:48:00.966Z,7.10
2022-11-29T01:53:03.452Z,7.09
2022-11-29T01:58:07.986Z,7.08
2022-11-29T02:03:15.178Z,7.10
2022-11-29T02:08:23.514Z,7.12
2022-11-29T02:13:40.014Z,7.13
2022-11-29T02:19:42.893Z,7.13
2022-11-29T02:25:03.433Z,7.12
2022-11-29T02:30:35.635Z,7.13
2022-11-29T02:35:58.430Z,7.14
2022-11-29T02:41:19.702Z,7.14
2022-11-29T02:46:35.346Z,7.14
2022-11-29T02:51:47.943Z,7.15
2022-11-29T02:57:07.363Z,7.15
2022-11-29T03:02:23.360Z,7.14
2022-11-29T03:07:37.508Z,7.15
2022-11-29T03:12:46.211Z,7.09
2022-11-29T03:18:16.803Z,7.10
2022-11-29T03:23:37.498Z,7.09
2022-11-29T03:29:07.056Z,7.09
2022-11-29T03:34:43.854Z,7.07
2022-11-29T03:40:04.691Z,7.08
2022-11-29T03:45:16.360Z,7.06
2022-11-29T03:50:23.365Z,7.07
2022-11-29T03:55:33.047Z,7.05
2022-11-29T04:01:01.452Z,7.03
2022-11-29T04:06:36.935Z,7.00
2022-11-29T04:12:07.947Z,6.97
2022-11-29T04:17:40.445Z,6.94
2022-11-29T04:23:17.556Z,6.93
2022-11-29T04:28:18.889Z,6.90
2022-11-29T04:33:41.105Z,6.83
2022-11-29T04:39:13.544Z,6.84
2022-11-29T04:44:23.636Z,6.81
2022-11-29T04:49:52.832Z,6.82
2022-11-29T04:55:04.524Z,6.79
2022-11-29T05:00:11.295Z,6.79
2022-11-29T05:05:24.833Z,6.81
2022-11-29T05:10:39.233Z,6.82
2022-11-29T05:16:18.241Z,6.81
2022-11-29T05:21:45.991Z,6.82
2022-11-29T05:26:59.717Z,6.79
2022-11-29T05:32:33.786Z,6.79
2022-11-29T05:37:50.756Z,6.77
2022-11-29T05:43:10.599Z,6.78
2022-11-29T05:48:31.547Z,6.79
2022-11-29T05:54:08.177Z,6.78
2022-11-29T05:59:15.218Z,6.74
2022-11-29T06:04:48.842Z,6.76
2022-11-29T06:10:01.525Z,6.74
2022-11-29T06:15:56.666Z,6.75
2022-11-29T06:21:22.469Z,6.77
2022-11-29T06:26:46.120Z,6.75
2022-11-29T06:31:55.719Z,6.76
2022-11-29T06:37:04.375Z,6.77
2022-11-29T06:42:08.691Z,6.75
2022-11-29T06:47:28.264Z,6.72
2022-11-29T06:52:43.804Z,6.72
2022-11-29T06:58:08.752Z,6.68
2022-11-29T07:03:38.470Z,6.69
2022-11-29T07:08:40.430Z,6.71
2022-11-29T07:13:42.158Z,6.67
2022-11-29T07:19:00.191Z,6.70
2022-11-29T07:24:13.947Z,6.61
2022-11-29T07:29:37.082Z,6.62
2022-11-29T07:34:52.948Z,6.61
2022-11-29T07:40:03.920Z,6.62
2022-11-29T07:45:18.467Z,6.60
2022-11-29T07:50:21.286Z,6.56
2022-11-29T07:55:25.521Z,6.53
2022-11-29T08:00:27.220Z,6.58
2022-11-29T08:05:47.969Z,6.66
2022-11-29T08:10:49.383Z,6.60
2022-11-29T08:15:50.923Z,6.59
2022-11-29T08:20:52.296Z,6.56
2022-11-29T08:25:59.945Z,6.51
2022-11-29T08:31:03.525Z,6.61
2022-11-29T08:36:10.314Z,6.62
2022-11-29T08:41:13.516Z,6.67
2022-11-29T08:46:18.606Z,6.63
2022-11-29T08:51:20.599Z,6.68
2022-11-29T08:57:10.127Z,6.64
2022-11-29T09:01:43.473Z,6.67
2022-11-29T09:06:44.875Z,6.67
2022-11-29T09:11:49.357Z,6.69
2022-11-29T09:16:51.214Z,6.77
2022-11-29T09:21:52.673Z,6.62
2022-11-29T09:26:54.072Z,6.70
2022-11-29T09:31:55.568Z,6.64
2022-11-29T09:37:07.090Z,6.67
2022-11-29T09:42:18.459Z,6.67
2022-11-29T09:47:41.760Z,6.62
2022-11-29T09:53:15.682Z,6.76
2022-11-29T09:58:21.606Z,6.75
2022-11-29T10:03:29.268Z,6.71
2022-11-29T10:08:38.668Z,6.63
2022-11-29T10:13:45.722Z,6.69
2022-11-29T10:18:51.845Z,6.69
2022-11-29T10:23:57.679Z,6.74
2022-11-29T10:28:59.644Z,6.85
2022-11-29T10:34:09.991Z,7.00
2022-11-29T10:39:46.669Z,7.02
2022-11-29T10:44:48.073Z,7.08
2022-11-29T10:49:49.923Z,7.11
2022-11-29T10:54:56.566Z,7.11
2022-11-29T11:00:07.014Z,7.05
2022-11-29T11:05:18.610Z,7.16
2022-11-29T11:10:30.810Z,7.27
2022-11-29T11:15:33.494Z,7.39
2022-11-29T11:20:39.745Z,7.38
2022-11-29T11:25:41.185Z,7.62
2022-11-29T11:30:50.792Z,7.49
2022-11-29T11:36:07.371Z,7.58
2022-11-29T11:41:20.635Z,7.58
2022-11-29T11:46:22.071Z,7.61
2022-11-29T11:51:25.677Z,7.72
2022-11-29T11:56:34.764Z,7.69
2022-11-29T12:01:38.579Z,7.77
2022-11-29T12:07:00.389Z,7.93
2022-11-29T12:12:31.092Z,7.92
2022-11-29T12:17:38.604Z,7.90
2022-11-29T12:22:48.603Z,7.98
2022-11-29T12:27:50.869Z,8.10
2022-11-29T12:33:01.453Z,8.07
2022-11-29T12:38:32.567Z,8.10
2022-11-29T12:43:55.329Z,8.23
2022-11-29T12:49:11.706Z,8.16
2022-11-29T12:54:16.321Z,8.06
2022-11-29T12:59:44.602Z,8.12
2022-11-29T13:04:59.380Z,8.02
2022-11-29T13:10:22.935Z,8.20
2022-11-29T13:15:28.991Z,8.21
2022-11-29T13:20:47.953Z,8.21
2022-11-29T13:25:54.438Z,8.19
2022-11-29T13:31:06.205Z,8.16
2022-11-29T13:36:26.096Z,8.34
2022-11-29T13:41:55.377Z,8.21
2022-11-29T13:47:05.678Z,8.25
2022-11-29T13:52:07.301Z,8.23
2022-11-29T13:57:09.752Z,8.17
2022-11-29T14:02:31.229Z,8.05
2022-11-29T14:07:34.950Z,8.02
2022-11-29T14:12:56.710Z,8.01
2022-11-29T14:18:02.312Z,8.06
2022-11-29T14:23:07.544Z,7.98
2022-11-29T14:28:14.860Z,7.93
2022-11-29T14:33:43.757Z,7.93
2022-11-29T14:38:54.631Z,7.83
2022-11-29T14:44:20.110Z,7.76
2022-11-29T14:49:24.501Z,7.70
2022-11-29T14:54:25.981Z,7.54
2022-11-29T14:59:50.280Z,7.52
2022-11-29T15:04:54.791Z,7.51
2022-11-29T15:10:01.102Z,7.49
2022-11-29T15:15:33.953Z,7.35
2022-11-29T15:20:59.085Z,7.37
2022-11-29T15:26:01.003Z,7.31
2022-11-29T15:31:06.047Z,7.30
2022-11-29T15:36:19.717Z,7.27
2022-11-29T15:41:34.437Z,7.25
2022-11-29T15:46:36.247Z,7.15
2022-11-29T15:51:39.365Z,7.18
2022-11-29T15:56:51.983Z,7.21
2022-11-29T16:01:55.847Z,7.19
2022-11-29T16:06:57.763Z,7.16
2022-11-29T16:12:01.810Z,7.15
2022-11-29T16:17:05.275Z,7.20
2022-11-29T16:22:12.508Z,7.17
2022-11-29T16:27:14.285Z,7.09
2022-11-29T16:32:42.931Z,7.09
2022-11-29T16:37:46.605Z,7.00
2022-11-29T16:43:23.485Z,7.00
2022-11-29T16:48:27.776Z,6.90
2022-11-29T16:53:38.063Z,6.89
2022-11-29T16:59:20.929Z,6.85
2022-11-29T17:04:02.025Z,6.85
2022-11-29T17:09:04.297Z,6.88
2022-11-29T17:14:05.737Z,6.89
2022-11-29T17:19:11.717Z,6.87
2022-11-29T17:24:15.754Z,6.92
2022-11-29T17:29:17.940Z,6.91
2022-11-29T17:34:19.705Z,6.91
2022-11-29T17:39:22.574Z,6.89
2022-11-29T17:44:24.009Z,6.90
2022-11-29T17:49:25.624Z,6.92
2022-11-29T17:54:27.014Z,6.93
2022-11-29T17:59:28.570Z,6.90
2022-11-29T18:04:30.053Z,6.95
2022-11-29T18:09:31.412Z,6.94
2022-11-29T18:14:33.499Z,6.95
2022-11-29T18:19:34.882Z,6.94
2022-11-29T18:24:36.237Z,6.96
2022-11-29T18:29:39.390Z,6.91
2022-11-29T18:34:40.866Z,6.94
2022-11-29T18:39:42.360Z,6.91
2022-11-29T18:44:44.002Z,6.93
2022-11-29T18:49:45.763Z,6.94
2022-11-29T18:54:47.559Z,6.94
2022-11-29T18:59:49.762Z,6.95
2022-11-29T19:04:53.903Z,6.96
2022-11-29T19:09:56.358Z,6.96
2022-11-29T19:15:03.035Z,6.97
2022-11-29T19:20:05.114Z,6.95
2022-11-29T19:25:08.581Z,6.95
2022-11-29T19:30:10.781Z,6.96
2022-11-29T19:35:14.604Z,6.90
2022-11-29T19:40:17.637Z,6.91
2022-11-29T19:45:19.819Z,6.86
2022-11-29T19:50:25.561Z,6.87
2022-11-29T19:55:27.126Z,6.85
2022-11-29T20:00:29.841Z,6.83
2022-11-29T20:05:31.655Z,6.82
2022-11-29T20:10:34.348Z,6.85
2022-11-29T20:15:38.014Z,6.81
2022-11-29T20:20:42.083Z,6.82
2022-11-29T20:25:48.739Z,6.79
2022-11-29T20:30:50.406Z,6.78
2022-11-29T20:36:04.574Z,6.80
2022-11-29T20:41:24.771Z,6.76
2022-11-29T20:46:26.640Z,6.77
2022-11-29T20:51:45.116Z,6.78
2022-11-29T20:56:47.024Z,6.80
2022-11-29T21:01:52.516Z,6.77
2022-11-29T21:06:53.994Z,6.75
2022-11-29T21:11:55.713Z,6.78
2022-11-29T21:16:57.425Z,6.76
2022-11-29T21:22:10.866Z,6.79
2022-11-29T21:27:20.995Z,6.76
2022-11-29T21:32:25.663Z,6.81
2022-11-29T21:37:29.691Z,6.83
2022-11-29T21:42:31.189Z,6.85
2022-11-29T21:47:33.325Z,6.89
2022-11-29T21:52:34.859Z,6.90
2022-11-29T21:57:36.628Z,6.93
2022-11-29T22:02:38.127Z,6.94
2022-11-29T22:07:41.971Z,6.95
2022-11-29T22:12:52.239Z,6.95
2022-11-29T22:17:54.296Z,6.97
2022-11-29T22:22:58.655Z,6.97
2022-11-29T22:28:00.426Z,6.93
2022-11-29T22:33:02.889Z,6.90
2022-11-29T22:38:04.311Z,6.87
2022-11-29T22:43:06.166Z,6.88
2022-11-29T22:48:09.895Z,6.77
2022-11-29T22:53:14.162Z,6.61
2022-11-29T22:58:15.584Z,6.63
2022-11-29T23:03:19.698Z,6.57
2022-11-29T23:08:26.412Z,6.46
2022-11-29T23:13:27.940Z,6.46
2022-11-29T23:18:30.808Z,6.47
2022-11-29T23:23:32.612Z,6.40
2022-11-29T23:28:35.534Z,6.41
2022-11-29T23:33:38.268Z,6.35
2022-11-29T23:38:43.194Z,6.37
2022-11-29T23:43:47.794Z,6.39
2022-11-29T23:48:51.387Z,6.35
2022-11-29T23:53:53.739Z,6.35
2022-11-29T23:58:55.846Z,6.28
